Time;durP1;ratioP1;P1;durP2;ratioP2;P2;SDS_P1;SDS_P2;PMS_P1;PMS_P2;Temp;Humidity;BMP_temperature;BMP_pressure;BME280_temperature;BME280_humidity;BME280_pressure;Samples;Min_cycle;Max_cycle;Signal;HPM_P1;HPM_P2
2022/10/27 00:00:05;;;;;;;9.43;6.30;;;;;;;21.77;44.09;95702.56;5038477;28;20073;-65
2022/10/27 00:02:31;;;;;;;8.90;6.05;;;;;;;22.57;44.47;95823.41;5015120;28;20042;-63
2022/10/27 00:04:56;;;;;;;11.13;6.22;;;;;;;22.53;44.32;95833.78;5030591;28;20157;-68
2022/10/27 00:07:22;;;;;;;7.72;5.97;;;;;;;22.58;44.26;95830.34;5030783;28;20039;-66
2022/10/27 00:09:47;;;;;;;9.00;6.40;;;;;;;22.56;44.72;95833.53;5059615;28;20049;-69
2022/10/27 00:12:13;;;;;;;8.77;6.05;;;;;;;22.10;44.35;95766.84;5061935;28;20425;-67
2022/10/27 00:14:39;;;;;;;9.55;6.38;;;;;;;22.56;44.40;95843.69;5046959;28;20067;-62
2022/10/27 00:17:05;;;;;;;8.48;6.22;;;;;;;22.55;44.36;95834.03;5041824;28;20049;-71
2022/10/27 00:19:30;;;;;;;9.00;6.07;;;;;;;22.54;44.61;95837.97;5045688;28;20059;-65
2022/10/27 00:21:56;;;;;;;7.45;5.55;;;;;;;22.37;44.40;95809.88;5064950;28;20331;-70
2022/10/27 00:24:21;;;;;;;9.25;6.15;;;;;;;22.55;44.30;95831.31;5049132;28;20371;-72
2022/10/27 00:26:47;;;;;;;7.93;5.43;;;;;;;22.54;44.60;95835.25;5062821;28;20590;-69
2022/10/27 00:29:12;;;;;;;8.50;5.93;;;;;;;22.54;44.16;95836.00;5065110;28;20040;-62
2022/10/27 00:31:38;;;;;;;9.15;6.05;;;;;;;22.42;44.60;95822.81;5028336;28;20188;-70
2022/10/27 00:34:03;;;;;;;7.78;6.05;;;;;;;22.42;44.36;95817.38;4997648;28;20033;-66
2022/10/27 00:36:29;;;;;;;8.35;5.97;;;;;;;22.53;44.43;95847.38;5059131;28;20401;-65
2022/10/27 00:38:55;;;;;;;8.70;6.40;;;;;;;22.46;44.47;95828.75;5036578;28;20044;-63
2022/10/27 00:41:35;;;;;;;9.25;5.88;;;;;;;22.53;44.40;95831.06;5045780;28;20049;-68
2022/10/27 00:44:02;;;;;;;9.10;5.30;;;;;;;22.54;44.44;95846.13;5035404;28;20094;-60
2022/10/27 00:46:42;;;;;;;7.32;5.53;;;;;;;22.37;44.66;95826.22;5039499;28;20074;-70
2022/10/27 00:49:09;;;;;;;8.55;5.72;;;;;;;22.33;44.77;95820.25;5020816;28;20067;-70
2022/10/27 00:51:36;;;;;;;8.25;5.70;;;;;;;22.49;44.49;95838.69;5063432;28;20056;-70
2022/10/27 00:54:02;;;;;;;7.20;5.40;;;;;;;22.50;44.50;95856.50;5027424;28;20072;-70
2022/10/27 00:56:27;;;;;;;9.05;6.20;;;;;;;21.57;44.52;95708.81;5045247;28;20058;-68
2022/10/27 00:58:53;;;;;;;6.80;4.97;;;;;;;22.50;44.42;95861.97;5033498;28;20606;-66
2022/10/27 01:01:18;;;;;;;7.70;5.50;;;;;;;21.69;44.62;95751.19;5046515;28;20724;-64
2022/10/27 01:03:44;;;;;;;7.97;5.85;;;;;;;22.50;44.75;95856.50;5051528;28;20060;-64
2022/10/27 01:06:09;;;;;;;8.57;5.90;;;;;;;22.32;44.79;95835.09;5015623;28;20056;-66
2022/10/27 01:08:35;;;;;;;7.70;5.47;;;;;;;22.44;44.71;95874.78;5038468;28;20543;-66
2022/10/27 01:11:00;;;;;;;7.93;5.35;;;;;;;21.71;44.23;95742.53;5027747;28;20049;-62
2022/10/27 01:13:26;;;;;;;8.45;5.80;;;;;;;22.47;44.42;95862.94;5032256;28;20040;-71
2022/10/27 01:16:30;;;;;;;7.72;5.55;;;;;;;22.33;44.67;95847.47;5057633;28;20051;-62
2022/10/27 01:19:37;;;;;;;7.00;5.15;;;;;;;22.46;44.64;95867.59;5048998;28;20029;-69
2022/10/27 01:22:19;;;;;;;8.57;5.38;;;;;;;22.47;44.75;95868.38;5002531;28;20513;-61
2022/10/27 01:25:10;;;;;;;8.32;5.70;;;;;;;22.48;44.71;95864.41;5045005;28;20643;-66
2022/10/27 01:27:47;;;;;;;8.43;5.10;;;;;;;22.45;44.48;95865.38;5028746;28;20045;-67
2022/10/27 01:30:17;;;;;;;9.25;5.68;;;;;;;22.45;44.64;95881.69;5029974;28;20075;-66
2022/10/27 01:32:51;;;;;;;7.40;5.38;;;;;;;22.44;44.03;95874.78;4998115;28;20076;-65
2022/10/27 01:35:23;;;;;;;9.00;5.43;;;;;;;22.45;44.77;95881.69;5033554;28;20532;-72
2022/10/27 01:37:54;;;;;;;8.02;5.40;;;;;;;22.44;44.80;95875.50;5021512;28;20124;-68
2022/10/27 01:40:38;;;;;;;8.05;5.32;;;;;;;22.43;44.52;95878.72;5025316;28;20028;-62
2022/10/27 01:43:06;;;;;;;8.02;5.30;;;;;;;22.44;44.47;95867.34;5017871;28;20045;-65
2022/10/27 01:45:34;;;;;;;7.32;5.13;;;;;;;22.45;44.77;95887.13;5041934;28;20064;-69
2022/10/27 01:47:59;;;;;;;8.40;5.65;;;;;;;22.43;44.64;95867.81;5042588;28;20785;-66
2022/10/27 01:50:29;;;;;;;8.02;5.53;;;;;;;22.26;44.56;95837.00;5035107;28;20044;-70
2022/10/27 01:52:55;;;;;;;8.27;5.60;;;;;;;22.43;44.55;95862.38;5049358;28;20068;-72
2022/10/27 01:55:38;;;;;;;8.32;4.90;;;;;;;22.43;44.92;95857.72;5017643;28;20109;-65
2022/10/27 01:58:13;;;;;;;7.57;5.65;;;;;;;22.43;44.62;95862.38;5039008;28;20847;-67
2022/10/27 02:01:04;;;;;;;7.95;5.13;;;;;;;22.44;44.53;95853.00;5061514;28;20052;-65
2022/10/27 02:03:54;;;;;;;8.63;5.93;;;;;;;22.44;44.77;95863.88;5043958;28;20051;-69
2022/10/27 02:06:51;;;;;;;;;;;;;;;22.43;44.47;95878.72;5003609;28;20083;-61
2022/10/27 02:09:51;;;;;;;7.30;5.30;;;;;;;22.43;44.50;95859.66;4989989;28;20316;-73
2022/10/27 02:12:27;;;;;;;7.75;5.47;;;;;;;22.41;44.78;95859.41;5022433;28;20066;-70
2022/10/27 02:14:53;;;;;;;7.53;5.50;;;;;;;22.42;44.66;95850.03;5032835;28;20194;-69
2022/10/27 02:17:18;;;;;;;8.02;5.93;;;;;;;22.41;44.55;95853.97;5020623;28;20787;-69
2022/10/27 02:19:45;;;;;;;8.13;5.38;;;;;;;22.41;44.75;95859.41;5060716;28;20048;-67
2022/10/27 02:22:11;;;;;;;8.20;5.75;;;;;;;22.41;44.80;95876.47;5042081;28;20161;-70
2022/10/27 02:24:36;;;;;;;8.23;5.75;;;;;;;21.51;44.86;95723.56;5010701;28;20041;-72
2022/10/27 02:27:07;;;;;;;8.60;5.45;;;;;;;22.40;45.01;95868.78;5044037;28;20055;-72
2022/10/27 02:29:34;;;;;;;8.73;6.32;;;;;;;22.41;44.45;95876.47;5034418;28;20049;-67
2022/10/27 02:32:01;;;;;;;8.30;5.55;;;;;;;22.39;44.73;95877.44;5061043;28;20048;-64
2022/10/27 02:34:26;;;;;;;7.80;5.35;;;;;;;21.60;44.65;95756.03;5011864;28;20037;-70
2022/10/27 02:36:51;;;;;;;8.35;5.47;;;;;;;21.58;44.73;95739.44;5040983;28;20067;-71
2022/10/27 02:39:17;;;;;;;7.55;5.47;;;;;;;22.21;44.46;95867.66;5027160;28;20048;-72
2022/10/27 02:41:42;;;;;;;8.80;5.55;;;;;;;21.49;44.53;95743.06;5032498;28;20053;-67
2022/10/27 02:44:08;;;;;;;8.02;5.10;;;;;;;22.39;44.87;95878.22;5012746;28;20045;-69
2022/10/27 02:46:33;;;;;;;9.18;6.15;;;;;;;22.11;44.84;95847.22;5062089;28;20060;-67
2022/10/27 02:48:59;;;;;;;8.55;5.50;;;;;;;22.25;44.84;95868.16;5038476;28;20039;-61
2022/10/27 02:51:24;;;;;;;7.78;5.30;;;;;;;21.31;44.57;95725.56;5044169;28;20048;-69
2022/10/27 02:53:50;;;;;;;7.50;5.15;;;;;;;22.20;44.75;95866.13;5029721;28;20052;-72
2022/10/27 02:56:15;;;;;;;8.88;6.03;;;;;;;22.37;44.71;95888.81;5044264;28;20040;-68
2022/10/27 02:58:41;;;;;;;8.35;5.50;;;;;;;22.38;44.77;95890.31;5064728;28;20157;-72
2022/10/27 03:01:06;;;;;;;7.35;5.00;;;;;;;22.37;44.99;95883.38;5048642;28;20032;-66
2022/10/27 03:03:32;;;;;;;7.95;5.65;;;;;;;22.24;44.55;95902.06;5063187;28;20150;-68
2022/10/27 03:05:57;;;;;;;7.80;5.28;;;;;;;21.39;44.67;95743.69;5047915;28;20049;-71
2022/10/27 03:08:22;;;;;;;8.15;5.57;;;;;;;22.36;44.86;95890.06;5060208;28;20033;-70
2022/10/27 03:10:48;;;;;;;7.53;5.28;;;;;;;22.36;44.73;95895.50;5028412;28;20072;-67
2022/10/27 03:13:13;;;;;;;7.25;4.85;;;;;;;21.74;45.01;95806.81;5061069;28;20109;-66
2022/10/27 03:15:39;;;;;;;7.45;5.47;;;;;;;21.71;44.40;95810.50;5047978;28;20098;-59
2022/10/27 03:18:04;;;;;;;7.25;5.43;;;;;;;22.34;44.82;95908.81;5044720;28;20102;-67
2022/10/27 03:20:30;;;;;;;8.80;5.50;;;;;;;21.56;44.68;95790.81;5064717;28;20197;-67
2022/10/27 03:22:55;;;;;;;7.50;5.35;;;;;;;22.34;44.72;95914.25;5032273;28;20405;-62
2022/10/27 03:25:20;;;;;;;7.85;5.50;;;;;;;22.34;44.83;95919.69;5054188;28;20520;-68
2022/10/27 03:27:46;;;;;;;8.23;5.35;;;;;;;22.35;44.63;95915.75;5030973;28;20482;-72
2022/10/27 03:30:13;;;;;;;8.25;5.32;;;;;;;22.33;44.78;95915.50;5054508;28;20489;-65
2022/10/27 03:32:39;;;;;;;7.85;5.45;;;;;;;22.34;44.95;95925.13;5061360;28;20049;-59
2022/10/27 03:35:05;;;;;;;7.72;5.00;;;;;;;22.23;44.69;95903.28;5039316;28;20048;-67
2022/10/27 03:37:30;;;;;;;7.13;5.05;;;;;;;22.26;44.75;95902.31;5030583;28;20139;-71
2022/10/27 03:39:55;;;;;;;7.20;5.05;;;;;;;22.32;44.82;95919.44;5026331;28;20033;-71
2022/10/27 03:42:21;;;;;;;7.82;5.38;;;;;;;22.33;44.83;95918.22;5063810;28;20527;-71
2022/10/27 03:44:46;;;;;;;8.02;5.32;;;;;;;22.11;44.56;95893.47;5061111;28;20488;-71
2022/10/27 03:47:12;;;;;;;7.25;5.03;;;;;;;21.78;44.60;95840.72;5029927;28;20135;-67
2022/10/27 03:49:37;;;;;;;7.88;5.28;;;;;;;21.18;44.69;95744.94;5032121;28;20024;-67
2022/10/27 03:52:03;;;;;;;7.40;5.07;;;;;;;22.15;44.90;95880.41;5049659;28;20142;-70
2022/10/27 03:54:29;;;;;;;7.95;5.50;;;;;;;22.49;44.22;95907.47;5046724;28;20048;-64
2022/10/27 03:56:55;;;;;;;7.72;5.40;;;;;;;22.41;44.86;95913.84;5065225;28;20113;-72
2022/10/27 03:59:20;;;;;;;9.38;5.10;;;;;;;21.35;44.84;95743.13;5035684;28;20049;-63
2022/10/27 04:01:46;;;;;;;7.68;5.18;;;;;;;22.40;45.34;95901.44;5038223;28;20516;-69
2022/10/27 04:04:11;;;;;;;6.85;5.05;;;;;;;22.37;44.95;95901.69;5041966;28;20528;-71
2022/10/27 04:06:37;;;;;;;7.85;5.00;;;;;;;22.40;45.12;95904.16;5026145;28;20045;-68
2022/10/27 04:09:02;;;;;;;7.85;5.07;;;;;;;22.43;44.96;95905.94;5026603;28;20525;-71
2022/10/27 04:11:27;;;;;;;6.50;4.55;;;;;;;22.30;44.97;95878.38;5006241;28;20544;-70
2022/10/27 04:13:53;;;;;;;7.80;5.15;;;;;;;22.60;44.92;95904.09;5009338;28;20053;-69
2022/10/27 04:16:18;;;;;;;7.40;4.70;;;;;;;22.54;45.01;95903.28;5027859;28;20033;-64
2022/10/27 04:18:44;;;;;;;6.60;4.82;;;;;;;22.58;45.22;95906.56;5006504;28;20146;-66
2022/10/27 04:21:09;;;;;;;7.97;4.60;;;;;;;22.70;45.58;95913.59;5026715;28;20592;-68
2022/10/27 04:23:35;;;;;;;7.43;5.00;;;;;;;21.84;44.87;95775.50;5007351;28;20078;-67
2022/10/27 04:26:00;;;;;;;6.97;4.70;;;;;;;22.10;45.35;95834.84;5027426;28;20049;-64
2022/10/27 04:28:26;;;;;;;7.00;4.68;;;;;;;22.71;44.93;95926.00;5027739;28;20486;-69
2022/10/27 04:30:51;;;;;;;6.72;4.82;;;;;;;22.73;45.45;95920.78;5037298;28;20041;-69
2022/10/27 04:33:16;;;;;;;6.55;4.63;;;;;;;22.74;45.31;95930.47;5006963;28;20037;-71
2022/10/27 04:35:42;;;;;;;7.00;4.70;;;;;;;22.46;45.27;95877.75;5020627;28;20045;-72
2022/10/27 04:38:07;;;;;;;7.95;4.75;;;;;;;22.70;44.94;95908.16;5020724;28;20052;-66
2022/10/27 04:40:33;;;;;;;7.85;4.65;;;;;;;22.83;44.94;95927.56;5008031;28;20667;-68
2022/10/27 04:42:58;;;;;;;6.93;4.60;;;;;;;22.83;45.03;95930.28;5014746;28;20032;-65
2022/10/27 04:45:24;;;;;;;6.78;4.32;;;;;;;22.89;45.38;95927.13;5007164;28;20087;-67
2022/10/27 04:47:49;;;;;;;7.00;4.35;;;;;;;22.75;44.99;95904.72;4994671;28;20792;-66
2022/10/27 04:50:15;;;;;;;6.95;4.75;;;;;;;22.93;45.11;95930.41;5030226;28;20507;-69
2022/10/27 04:52:40;;;;;;;5.88;4.35;;;;;;;23.01;44.58;95957.94;5031505;28;20515;-64
2022/10/27 04:55:06;;;;;;;6.53;4.70;;;;;;;22.97;44.74;95925.50;5026609;28;20748;-67
2022/10/27 04:57:32;;;;;;;6.63;4.28;;;;;;;23.01;44.48;95927.97;5030800;28;20041;-63
2022/10/27 04:59:57;;;;;;;7.32;4.78;;;;;;;23.21;44.08;95928.59;5045241;28;20548;-70
2022/10/27 05:02:22;;;;;;;8.05;4.90;;;;;;;23.08;44.71;95952.81;5024828;28;20450;-69
2022/10/27 05:04:48;;;;;;;7.30;4.57;;;;;;;22.14;44.15;95786.44;5025034;28;20064;-68
2022/10/27 05:07:13;;;;;;;6.78;4.53;;;;;;;23.25;44.28;95948.22;5049742;28;20040;-64
2022/10/27 05:09:39;;;;;;;6.22;4.28;;;;;;;23.22;44.61;95943.00;5027239;28;20048;-67
2022/10/27 05:12:04;;;;;;;6.82;4.43;;;;;;;23.64;43.71;95952.69;5031793;28;20053;-70
2022/10/27 05:14:30;;;;;;;7.07;4.47;;;;;;;23.46;44.19;95953.03;5045826;28;20580;-71
2022/10/27 05:16:55;;;;;;;6.53;4.40;;;;;;;21.72;43.72;95711.41;5055358;28;20052;-65
2022/10/27 05:19:21;;;;;;;7.00;4.45;;;;;;;23.40;44.52;95954.25;5026413;28;20087;-70
2022/10/27 05:21:46;;;;;;;7.45;4.75;;;;;;;22.81;44.43;95894.59;5017630;28;20106;-71
2022/10/27 05:24:12;;;;;;;7.05;4.45;;;;;;;23.63;44.53;95972.22;5054172;28;20758;-67
2022/10/27 05:26:37;;;;;;;6.80;4.13;;;;;;;23.43;44.13;95931.47;5055729;28;20048;-71
2022/10/27 05:29:03;;;;;;;9.23;4.90;;;;;;;23.60;46.56;95973.19;5035759;28;20058;-69
2022/10/27 05:31:28;;;;;;;5.63;3.78;;;;;;;23.66;45.73;95993.88;5037806;28;20755;-63
2022/10/27 05:33:54;;;;;;;6.65;4.32;;;;;;;22.86;45.98;95850.34;5045113;28;20417;-64
2022/10/27 05:36:19;;;;;;;6.78;4.07;;;;;;;23.75;45.25;96006.53;5044630;28;20059;-59
2022/10/27 05:38:45;;;;;;;6.70;4.00;;;;;;;23.68;46.75;96007.00;5045894;28;20602;-69
2022/10/27 05:41:10;;;;;;;5.80;4.43;;;;;;;21.86;45.82;95740.44;5028527;28;20576;-71
2022/10/27 05:43:37;;;;;;;5.75;3.97;;;;;;;22.79;45.51;95862.41;5040049;28;20029;-75
2022/10/27 05:46:03;;;;;;;6.55;4.18;;;;;;;23.77;44.95;96004.09;5045917;28;20028;-68
2022/10/27 05:48:29;;;;;;;6.85;4.28;;;;;;;23.48;45.27;95993.44;5057169;28;20150;-70
2022/10/27 05:50:54;;;;;;;7.40;4.30;;;;;;;23.60;45.08;96022.28;5046578;28;20056;-66
2022/10/27 05:53:20;;;;;;;6.40;4.20;;;;;;;23.22;45.39;95976.44;5042998;28;20055;-66
2022/10/27 05:55:46;;;;;;;7.60;4.30;;;;;;;23.53;45.25;96022.75;5011926;28;20060;-61
2022/10/27 05:58:11;;;;;;;11.02;3.97;;;;;;;23.31;45.04;96011.69;5061732;28;20032;-68
2022/10/27 06:00:37;;;;;;;6.45;3.90;;;;;;;23.59;44.76;96037.16;5043604;28;20040;-70
2022/10/27 06:03:04;;;;;;;6.40;4.30;;;;;;;23.87;44.68;96036.88;5039575;28;20044;-72
2022/10/27 06:05:30;;;;;;;8.52;3.85;;;;;;;23.77;44.44;96045.00;5039886;28;20095;-62
2022/10/27 06:07:55;;;;;;;6.10;4.18;;;;;;;23.72;44.14;96040.25;5041250;28;20437;-65
2022/10/27 06:10:21;;;;;;;9.70;4.35;;;;;;;23.59;44.76;96037.16;5024855;28;20025;-70
2022/10/27 06:12:46;;;;;;;7.60;4.20;;;;;;;22.74;44.25;95876.00;5042968;28;20080;-64
2022/10/27 06:15:12;;;;;;;7.10;4.20;;;;;;;23.70;44.29;96031.81;5041336;28;20052;-70
2022/10/27 06:17:37;;;;;;;5.82;4.00;;;;;;;23.71;44.28;96038.75;5044186;28;20036;-63
2022/10/27 06:20:03;;;;;;;6.80;3.72;;;;;;;23.05;44.05;95917.63;5044920;28;20067;-72
2022/10/27 06:22:29;;;;;;;6.78;4.10;;;;;;;23.86;43.84;96051.75;5043045;28;20775;-69
2022/10/27 06:24:54;;;;;;;6.28;3.97;;;;;;;24.09;43.12;96049.88;5013612;28;20105;-64
2022/10/27 06:27:20;;;;;;;9.00;4.68;;;;;;;23.02;43.10;95897.53;5027122;28;20037;-61
2022/10/27 06:29:45;;;;;;;5.68;3.78;;;;;;;24.16;42.79;96052.91;5042426;28;20309;-62
2022/10/27 06:32:11;;;;;;;8.70;4.20;;;;;;;23.97;43.42;96054.53;5025172;28;20049;-67
2022/10/27 06:34:36;;;;;;;5.93;4.05;;;;;;;23.94;43.27;96062.94;5004869;28;21253;-66
2022/10/27 06:37:05;;;;;;;8.32;4.53;;;;;;;23.72;43.35;96051.16;5041540;28;20465;-60
2022/10/27 06:39:31;;;;;;;6.78;3.97;;;;;;;23.72;44.08;96051.91;5048288;28;20079;-65
2022/10/27 06:41:56;;;;;;;6.15;3.80;;;;;;;23.53;43.70;96044.56;5061072;28;20040;-67
2022/10/27 06:44:23;;;;;;;6.47;4.00;;;;;;;23.66;43.85;96074.91;5044753;28;20043;-69
2022/10/27 06:46:48;;;;;;;6.43;3.90;;;;;;;23.61;43.69;96073.59;5059901;28;20122;-67
2022/10/27 06:49:13;;;;;;;7.55;4.00;;;;;;;22.00;43.54;95825.38;5056300;28;20040;-65
2022/10/27 06:51:39;;;;;;;6.93;4.00;;;;;;;23.56;43.36;96057.22;5026421;28;20044;-66
2022/10/27 06:54:04;;;;;;;8.02;3.70;;;;;;;23.54;43.51;96059.66;5024725;28;20471;-67
2022/10/27 06:56:30;;;;;;;6.20;4.03;;;;;;;22.75;43.64;95975.50;5027950;28;20060;-65
2022/10/27 06:58:55;;;;;;;5.95;3.80;;;;;;;23.53;44.27;96067.13;5025956;28;20509;-63
2022/10/27 07:01:21;;;;;;;6.35;4.10;;;;;;;23.55;44.25;96080.25;5041319;28;20047;-66
2022/10/27 07:03:46;;;;;;;5.07;3.88;;;;;;;23.38;43.77;96061.03;5039582;28;20523;-65
2022/10/27 07:06:12;;;;;;;7.85;4.13;;;;;;;23.42;44.12;96093.53;5036641;28;20198;-62
2022/10/27 07:08:38;;;;;;;6.82;4.30;;;;;;;23.41;43.73;96076.44;5039759;28;20080;-63
2022/10/27 07:11:03;;;;;;;5.93;3.75;;;;;;;23.41;43.60;96072.97;5035399;28;20052;-64
2022/10/27 07:13:28;;;;;;;7.32;4.07;;;;;;;23.38;43.88;96076.66;5022193;28;20132;-64
2022/10/27 07:15:54;;;;;;;6.63;4.03;;;;;;;22.50;43.92;95940.91;5043988;28;20393;-66
2022/10/27 07:18:19;;;;;;;7.28;4.00;;;;;;;23.40;44.34;96082.38;5061532;28;20127;-58
2022/10/27 07:20:45;;;;;;;6.97;4.68;;;;;;;23.39;44.38;96080.88;5039226;28;20090;-64
2022/10/27 07:23:11;;;;;;;5.65;3.60;;;;;;;23.36;43.93;96079.09;5032157;28;20046;-64
2022/10/27 07:25:36;;;;;;;7.57;4.07;;;;;;;23.36;43.93;96102.91;5061097;28;20523;-60
2022/10/27 07:28:03;;;;;;;7.32;4.18;;;;;;;23.14;43.89;96065.31;5039132;28;20142;-65
2022/10/27 07:30:30;;;;;;;7.40;4.60;;;;;;;23.10;44.23;96067.50;5048408;28;20104;-67
2022/10/27 07:32:56;;;;;;;8.02;4.40;;;;;;;23.02;44.27;96060.25;5043269;28;20124;-60
2022/10/27 07:35:21;;;;;;;6.18;4.13;;;;;;;23.30;44.22;96118.47;5024387;28;20131;-60
2022/10/27 07:37:47;;;;;;;5.82;4.10;;;;;;;23.27;43.89;96109.25;5041417;28;20044;-65
2022/10/27 07:40:14;;;;;;;7.15;4.22;;;;;;;23.07;44.14;96082.06;5043335;28;20032;-64
2022/10/27 07:42:44;;;;;;;6.05;4.15;;;;;;;23.03;43.99;96095.19;5033107;28;20119;-65
2022/10/27 07:45:10;;;;;;;7.82;4.80;;;;;;;23.05;44.62;96086.53;5025296;28;20123;-67
2022/10/27 07:47:36;;;;;;;6.65;4.00;;;;;;;22.90;44.59;96097.47;5030481;28;20056;-65
2022/10/27 07:50:01;;;;;;;7.70;4.72;;;;;;;21.43;44.28;95847.44;5033792;28;20406;-68
2022/10/27 07:52:27;;;;;;;5.95;3.97;;;;;;;22.99;44.21;96089.19;5039783;28;20063;-62
2022/10/27 07:54:52;;;;;;;7.43;4.10;;;;;;;23.17;44.36;96102.50;5031571;28;20045;-68
2022/10/27 07:57:18;;;;;;;7.65;4.75;;;;;;;22.24;44.09;95959.19;5028790;28;20068;-64
2022/10/27 07:59:43;;;;;;;8.95;4.35;;;;;;;23.09;44.43;96098.72;5025456;28;20053;-67
2022/10/27 08:02:11;;;;;;;8.60;4.35;;;;;;;22.97;44.14;96080.00;5024600;28;20050;-60
2022/10/27 08:04:37;;;;;;;8.85;4.32;;;;;;;23.15;44.03;96104.19;5041445;28;20394;-68
2022/10/27 08:07:02;;;;;;;8.07;4.38;;;;;;;23.17;44.21;96099.75;5044059;28;20028;-68
2022/10/27 08:09:28;;;;;;;7.75;4.25;;;;;;;23.12;44.01;96097.75;5044631;28;20569;-65
2022/10/27 08:11:53;;;;;;;7.15;4.45;;;;;;;23.14;44.48;96095.28;5023489;28;20421;-64
2022/10/27 08:14:18;;;;;;;7.88;4.40;;;;;;;23.13;44.00;96088.31;5024164;28;20037;-64
2022/10/27 08:16:44;;;;;;;7.85;4.47;;;;;;;23.13;44.14;96091.06;5024163;28;20425;-62
2022/10/27 08:19:10;;;;;;;7.43;4.63;;;;;;;23.12;44.08;96092.28;5027572;28;20551;-64
2022/10/27 08:21:35;;;;;;;7.95;4.05;;;;;;;22.68;44.16;96019.53;5043384;28;20037;-69
2022/10/27 08:24:00;;;;;;;8.75;4.40;;;;;;;23.19;44.24;96091.84;5039719;28;20095;-70
2022/10/27 08:26:26;;;;;;;7.60;4.47;;;;;;;23.20;43.68;96093.34;5026229;28;20041;-65
2022/10/27 08:28:51;;;;;;;6.63;4.50;;;;;;;23.20;43.68;96095.31;5037976;28;20137;-59
2022/10/27 08:31:17;;;;;;;7.28;4.35;;;;;;;23.18;43.72;96090.34;5004146;28;20044;-63
2022/10/27 08:33:43;;;;;;;8.85;4.63;;;;;;;23.22;43.58;96096.34;5037660;28;20048;-65
2022/10/27 08:36:10;;;;;;;9.57;5.10;;;;;;;23.07;43.73;96063.00;5022864;28;20042;-62
2022/10/27 08:38:37;;;;;;;7.93;4.32;;;;;;;23.26;43.36;96091.44;5029363;28;20038;-64
2022/10/27 08:41:21;;;;;;;7.70;4.43;;;;;;;23.34;43.52;96094.47;5034832;28;20080;-67
2022/10/27 08:44:09;;;;;;;6.30;3.90;;;;;;;23.30;43.77;96091.94;5022610;28;20156;-66
2022/10/27 08:46:39;;;;;;;6.63;4.20;;;;;;;23.38;43.03;96087.56;5014723;28;20033;-61
2022/10/27 08:49:06;;;;;;;7.07;4.30;;;;;;;23.30;42.77;96064.69;5030904;28;20029;-66
2022/10/27 08:51:32;;;;;;;8.23;4.68;;;;;;;23.53;43.06;96085.47;5016610;28;20126;-62
2022/10/27 08:53:57;;;;;;;9.05;4.60;;;;;;;23.49;42.74;96076.75;5011168;28;20053;-67
2022/10/27 08:56:23;;;;;;;8.13;4.70;;;;;;;23.56;42.70;96087.22;5035546;28;20037;-59
2022/10/27 08:58:49;;;;;;;7.40;4.30;;;;;;;23.55;42.71;96085.72;5017168;28;20509;-64
2022/10/27 09:01:29;;;;;;;6.90;4.43;;;;;;;23.51;43.27;96090.63;5025490;28;20025;-63
2022/10/27 09:04:10;;;;;;;8.95;4.40;;;;;;;23.36;39.63;96083.81;5034381;28;20057;-67
2022/10/27 09:06:56;;;;;;;7.43;4.13;;;;;;;23.05;37.75;96084.53;5024532;28;20041;-69
2022/10/27 09:09:49;;;;;;;7.20;3.55;;;;;;;21.38;36.87;95837.28;5027304;28;20578;-70
2022/10/27 09:12:32;;;;;;;7.78;4.03;;;;;;;23.10;37.29;96092.00;5033342;28;20056;-68
2022/10/27 09:15:10;;;;;;;7.80;3.50;;;;;;;21.60;36.87;95829.41;5031934;28;20051;-66
2022/10/27 09:17:44;;;;;;;10.00;3.90;;;;;;;22.63;35.56;95971.19;5029974;28;20111;-62
2022/10/27 09:20:36;;;;;;;6.40;3.60;;;;;;;23.36;35.60;96084.56;5031397;28;20045;-66
2022/10/27 09:23:03;;;;;;;6.32;3.47;;;;;;;23.08;35.29;96064.50;5030866;28;20045;-69
2022/10/27 09:25:28;;;;;;;6.65;3.45;;;;;;;23.42;35.08;96060.81;5019876;28;20422;-65
2022/10/27 09:27:55;;;;;;;13.52;5.18;;;;;;;23.71;34.97;96076.94;5023190;28;20428;-68
2022/10/27 09:30:21;;;;;;;37.40;10.13;;;;;;;23.86;34.33;96057.19;5017013;28;20049;-66
2022/10/27 09:32:55;;;;;;;32.58;10.02;;;;;;;22.85;34.89;95946.88;5039871;28;20120;-68
2022/10/27 09:35:24;;;;;;;17.35;6.53;;;;;;;23.62;34.84;96071.66;5045845;28;20045;-69
2022/10/27 09:37:51;;;;;;;24.48;7.65;;;;;;;23.89;34.16;96071.84;5022050;28;20061;-60
2022/10/27 09:40:19;;;;;;;15.32;6.13;;;;;;;24.26;33.63;96056.91;5002866;28;20033;-67
2022/10/27 09:42:45;;;;;;;18.63;6.47;;;;;;;23.36;34.33;95926.47;5033490;28;20049;-63
2022/10/27 09:45:21;;;;;;;14.30;5.40;;;;;;;24.14;33.96;96036.28;5035966;28;20041;-69
2022/10/27 09:48:09;;;;;;;10.75;4.30;;;;;;;24.45;33.45;96063.47;5019616;28;20072;-70
2022/10/27 09:50:51;;;;;;;9.95;4.30;;;;;;;24.41;33.36;96027.47;5035653;28;20053;-66
2022/10/27 09:53:51;;;;;;;8.40;3.72;;;;;;;24.74;32.87;96052.91;5044481;28;20133;-69
2022/10/27 09:56:30;;;;;;;10.05;4.45;;;;;;;24.76;33.33;96049.66;5056300;28;20194;-65
2022/10/27 09:59:01;;;;;;;7.20;3.77;;;;;;;24.57;33.34;96021.31;5028702;28;20527;-63
2022/10/27 10:01:39;;;;;;;9.40;4.00;;;;;;;24.79;33.57;96043.22;5005486;28;20167;-61
2022/10/27 10:04:06;;;;;;;10.85;3.80;;;;;;;24.99;33.24;96043.75;5047949;28;20057;-59
2022/10/27 10:06:35;;;;;;;10.10;4.05;;;;;;;24.86;34.06;96038.75;5039542;28;20064;-63
2022/10/27 10:09:34;;;;;;;7.53;3.13;;;;;;;24.96;33.35;96048.22;5035378;28;20057;-64
2022/10/27 10:12:24;;;;;;;8.00;3.20;;;;;;;24.82;34.18;96053.16;5028939;28;20059;-68
2022/10/27 10:14:51;;;;;;;8.65;3.30;;;;;;;24.73;34.49;96045.19;5053285;28;20041;-65
2022/10/27 10:17:26;;;;;;;12.35;4.57;;;;;;;24.65;36.58;96035.97;5038107;28;20047;-63
2022/10/27 10:19:54;;;;;;;11.18;4.38;;;;;;;24.56;36.91;96008.91;5025179;28;20166;-69
2022/10/27 10:22:28;;;;;;;7.57;3.88;;;;;;;23.86;36.84;95932.97;5034493;28;20116;-63
2022/10/27 10:24:54;;;;;;;10.27;4.15;;;;;;;24.75;36.62;96037.25;5048000;28;20424;-63
2022/10/27 10:27:27;;;;;;;8.48;3.40;;;;;;;24.59;34.09;96024.31;5060637;28;20156;-65
2022/10/27 10:29:53;;;;;;;9.50;2.78;;;;;;;24.98;34.45;96037.53;5024476;28;20579;-62
2022/10/27 10:32:22;;;;;;;8.90;3.47;;;;;;;24.82;36.43;96037.50;5046964;28;20044;-61
2022/10/27 10:34:49;;;;;;;7.90;3.67;;;;;;;24.91;36.49;96021.63;5041507;28;20048;-64
2022/10/27 10:37:41;;;;;;;8.07;3.90;;;;;;;24.99;36.19;96035.56;5013999;28;20118;-58
2022/10/27 10:40:13;;;;;;;8.68;3.47;;;;;;;25.15;36.10;96038.31;5031831;28;20049;-65
2022/10/27 10:42:39;;;;;;;6.40;3.10;;;;;;;25.20;35.97;96034.88;5046636;28;20059;-65
2022/10/27 10:45:09;;;;;;;6.80;3.67;;;;;;;25.20;35.85;96029.41;5056649;28;20412;-60
2022/10/27 10:47:35;;;;;;;7.55;3.15;;;;;;;25.22;36.09;96026.16;5040970;28;20048;-63
2022/10/27 10:50:01;;;;;;;6.68;2.80;;;;;;;25.22;35.90;96010.50;5022469;28;20044;-68
2022/10/27 10:52:35;;;;;;;6.00;3.05;;;;;;;25.61;35.45;96019.41;5046821;28;20053;-66
2022/10/27 10:55:16;;;;;;;6.72;3.03;;;;;;;25.36;35.60;96023.16;5030967;28;20048;-61
2022/10/27 10:57:44;;;;;;;6.38;3.00;;;;;;;25.60;35.42;96023.41;5048392;28;20045;-64
2022/10/27 11:00:17;;;;;;;6.25;3.15;;;;;;;25.28;35.67;95992.09;5043832;28;20432;-60
2022/10/27 11:02:48;;;;;;;5.15;2.92;;;;;;;25.15;35.90;96027.38;5026388;28;20040;-68
2022/10/27 11:05:22;;;;;;;5.80;3.08;;;;;;;25.30;35.55;96010.75;5023012;28;20037;-65
2022/10/27 11:07:48;;;;;;;5.22;2.80;;;;;;;25.37;35.57;96013.72;5036495;28;20048;-64
2022/10/27 11:10:20;;;;;;;5.35;3.22;;;;;;;25.30;35.54;96003.28;5053039;28;20032;-67
2022/10/27 11:12:49;;;;;;;4.93;2.50;;;;;;;25.24;35.75;96008.00;5060972;28;20071;-66
2022/10/27 11:15:36;;;;;;;5.70;2.78;;;;;;;25.11;36.07;96010.50;5062700;28;20064;-58
2022/10/27 11:18:09;;;;;;;5.40;2.50;;;;;;;25.07;35.81;96003.78;5020839;28;20090;-60
2022/10/27 11:20:35;;;;;;;4.40;2.20;;;;;;;24.99;35.50;95987.13;5024875;28;20059;-59
2022/10/27 11:23:12;;;;;;;6.32;2.83;;;;;;;25.21;35.71;96003.53;5031136;28;20037;-62
2022/10/27 11:25:38;;;;;;;5.88;2.58;;;;;;;25.07;35.76;96010.00;5029117;28;20041;-60
2022/10/27 11:28:22;;;;;;;4.82;2.40;;;;;;;24.91;35.80;95969.69;5049101;28;20028;-67
2022/10/27 11:30:51;;;;;;;4.40;2.20;;;;;;;24.90;35.98;95995.56;5025667;28;20041;-67
2022/10/27 11:33:23;;;;;;;5.70;2.40;;;;;;;24.99;35.67;95992.59;5025771;28;20044;-65
2022/10/27 11:36:04;;;;;;;3.20;1.90;;;;;;;24.92;35.26;96003.25;5027235;28;20041;-61
2022/10/27 11:38:50;;;;;;;4.00;2.13;;;;;;;24.63;35.59;95968.16;5016859;28;20540;-64
2022/10/27 11:41:45;;;;;;;4.03;1.83;;;;;;;25.13;35.25;95991.59;5043900;28;20554;-65